createdAt,value
2019-02-14T00:01:59.950Z,19.10
2019-02-14T00:04:27.263Z,23.67
2019-02-14T00:06:54.960Z,20.93
2019-02-14T00:09:22.480Z,23.40
2019-02-14T00:11:50.512Z,20.30
2019-02-14T00:14:18.790Z,26.17
2019-02-14T00:16:46.607Z,23.93
2019-02-14T00:19:13.853Z,17.93
2019-02-14T00:21:42.161Z,22.93
2019-02-14T00:24:09.685Z,18.23
2019-02-14T00:26:36.873Z,18.50
2019-02-14T00:29:04.642Z,21.33
2019-02-14T00:31:32.516Z,19.97
2019-02-14T00:33:59.713Z,21.63
2019-02-14T00:36:27.070Z,20.47
2019-02-14T00:38:54.651Z,18.07
2019-02-14T00:41:22.386Z,21.53
2019-02-14T00:43:50.044Z,18.23
2019-02-14T00:46:17.601Z,18.73
2019-02-14T00:48:45.246Z,21.23
2019-02-14T00:51:12.885Z,23.37
2019-02-14T00:53:40.881Z,25.10
2019-02-14T00:56:08.463Z,20.57
2019-02-14T00:58:36.198Z,23.70
2019-02-14T01:01:03.809Z,20.67
2019-02-14T01:03:31.202Z,21.00
2019-02-14T01:05:58.664Z,20.50
2019-02-14T01:08:26.464Z,19.93
2019-02-14T01:10:54.211Z,19.27
2019-02-14T01:13:21.574Z,23.93
2019-02-14T01:15:49.500Z,24.13
2019-02-14T01:18:16.663Z,31.33
2019-02-14T01:20:43.985Z,20.80
2019-02-14T01:23:11.674Z,21.40
2019-02-14T01:25:39.185Z,18.87
2019-02-14T01:28:07.087Z,20.57
2019-02-14T01:30:34.576Z,17.20
2019-02-14T01:33:02.257Z,24.17
2019-02-14T01:35:29.591Z,24.93
2019-02-14T01:37:57.777Z,22.17
2019-02-14T01:40:25.148Z,20.23
2019-02-14T01:42:52.282Z,24.23
2019-02-14T01:45:20.426Z,22.73
2019-02-14T01:47:48.293Z,21.10
2019-02-14T01:50:15.541Z,24.93
2019-02-14T01:52:43.625Z,22.80
2019-02-14T01:55:11.603Z,23.10
2019-02-14T01:57:39.299Z,16.97
2019-02-14T02:00:11.052Z,22.47
2019-02-14T02:02:38.692Z,18.60
2019-02-14T02:05:06.740Z,23.80
2019-02-14T02:07:34.739Z,18.90
2019-02-14T02:10:02.386Z,22.30
2019-02-14T02:12:29.977Z,16.37
2019-02-14T02:14:58.613Z,19.50
2019-02-14T02:17:26.501Z,21.33
2019-02-14T02:19:54.048Z,16.23
2019-02-14T02:22:21.683Z,16.67
2019-02-14T02:24:49.273Z,14.13
2019-02-14T02:27:17.089Z,19.70
2019-02-14T02:29:44.770Z,17.07
2019-02-14T02:32:15.845Z,17.73
2019-02-14T02:34:43.582Z,14.90
2019-02-14T02:37:11.466Z,21.27
2019-02-14T02:39:39.374Z,16.83
2019-02-14T02:42:07.020Z,16.20
2019-02-14T02:44:34.455Z,14.97
2019-02-14T02:47:01.704Z,13.73
2019-02-14T02:49:29.690Z,17.13
2019-02-14T02:51:57.492Z,18.73
2019-02-14T02:54:25.913Z,14.97
2019-02-14T02:56:53.399Z,15.23
2019-02-14T02:59:20.919Z,14.67
2019-02-14T03:01:48.505Z,14.63
2019-02-14T03:04:16.092Z,14.10
2019-02-14T03:06:43.226Z,18.40
2019-02-14T03:09:10.528Z,23.83
2019-02-14T03:11:37.830Z,17.83
2019-02-14T03:14:08.630Z,16.23
2019-02-14T03:16:35.794Z,14.77
2019-02-14T03:19:03.352Z,17.07
2019-02-14T03:21:31.157Z,17.03
2019-02-14T03:23:58.859Z,15.47
2019-02-14T03:26:26.824Z,15.53
2019-02-14T03:28:54.929Z,14.27
2019-02-14T03:31:22.381Z,17.03
2019-02-14T03:33:50.914Z,15.00
2019-02-14T03:36:19.413Z,13.93
2019-02-14T03:38:47.193Z,13.40
2019-02-14T03:41:14.398Z,15.57
2019-02-14T03:43:41.796Z,17.20
2019-02-14T03:46:09.074Z,13.23
2019-02-14T03:48:36.258Z,14.30
2019-02-14T03:51:04.083Z,15.10
2019-02-14T03:53:32.091Z,19.23
2019-02-14T03:55:59.853Z,15.87
2019-02-14T03:58:28.169Z,16.33
2019-02-14T04:00:55.982Z,19.13
2019-02-14T04:03:23.676Z,17.00
2019-02-14T04:05:51.115Z,18.83
2019-02-14T04:08:18.700Z,24.47
2019-02-14T04:10:45.898Z,20.17
2019-02-14T04:13:13.206Z,14.90
2019-02-14T04:15:40.839Z,19.20
2019-02-14T04:18:08.502Z,15.73
2019-02-14T04:20:36.880Z,16.17
2019-02-14T04:23:04.406Z,19.43
2019-02-14T04:25:31.894Z,15.67
2019-02-14T04:27:59.068Z,17.33
2019-02-14T04:30:26.439Z,22.77
2019-02-14T04:32:53.899Z,16.07
2019-02-14T04:35:21.200Z,15.27
2019-02-14T04:37:49.488Z,16.97
2019-02-14T04:40:17.018Z,13.90
2019-02-14T04:42:44.723Z,17.70
2019-02-14T04:45:12.561Z,16.73
2019-02-14T04:47:40.393Z,14.67
2019-02-14T04:50:08.242Z,12.67
2019-02-14T04:52:35.883Z,13.27
2019-02-14T04:55:04.267Z,15.07
2019-02-14T04:57:32.174Z,13.20
2019-02-14T04:59:59.805Z,20.40
2019-02-14T05:02:27.820Z,16.93
2019-02-14T05:04:55.251Z,13.40
2019-02-14T05:07:23.208Z,13.70
2019-02-14T05:09:50.939Z,15.17
2019-02-14T05:12:18.503Z,13.03
2019-02-14T05:14:45.630Z,14.53
2019-02-14T05:17:13.734Z,12.10
2019-02-14T05:19:40.916Z,17.47
2019-02-14T05:22:08.703Z,15.93
2019-02-14T05:24:36.234Z,15.30
2019-02-14T05:27:03.690Z,17.23
2019-02-14T05:29:32.305Z,13.47
2019-02-14T05:31:59.767Z,11.90
2019-02-14T05:34:27.419Z,15.07
2019-02-14T05:36:55.359Z,11.57
2019-02-14T05:39:23.129Z,12.67
2019-02-14T05:41:51.540Z,12.57
2019-02-14T05:44:19.667Z,9.93
2019-02-14T05:46:47.720Z,12.07
2019-02-14T05:49:15.361Z,13.28
2019-02-14T05:51:43.018Z,16.70
2019-02-14T05:54:13.246Z,13.90
2019-02-14T05:56:41.056Z,15.67
2019-02-14T05:59:10.372Z,15.50
2019-02-14T06:01:37.871Z,14.70
2019-02-14T06:04:05.127Z,14.53
2019-02-14T06:06:32.633Z,11.63
2019-02-14T06:09:00.088Z,16.17
2019-02-14T06:11:28.217Z,12.57
2019-02-14T06:13:55.747Z,10.13
2019-02-14T06:16:23.391Z,12.27
2019-02-14T06:18:50.705Z,15.17
2019-02-14T06:21:19.141Z,14.33
2019-02-14T06:23:49.981Z,14.03
2019-02-14T06:26:18.207Z,13.20
2019-02-14T06:28:46.032Z,13.87
2019-02-14T06:31:13.888Z,16.00
2019-02-14T06:33:41.306Z,17.87
2019-02-14T06:36:09.050Z,15.73
2019-02-14T06:38:36.654Z,12.70
2019-02-14T06:41:04.030Z,14.03
2019-02-14T06:43:31.895Z,14.23
2019-02-14T06:45:59.777Z,17.40
2019-02-14T06:48:27.691Z,15.73
2019-02-14T06:50:54.946Z,17.87
2019-02-14T06:53:22.883Z,19.03
2019-02-14T06:55:50.122Z,20.10
2019-02-14T06:58:17.389Z,17.83
2019-02-14T07:00:45.274Z,19.20
2019-02-14T07:03:12.702Z,17.93
2019-02-14T07:05:40.290Z,19.73
2019-02-14T07:08:07.961Z,14.83
2019-02-14T07:10:36.583Z,18.50
2019-02-14T07:13:04.570Z,17.30
2019-02-14T07:15:32.574Z,17.33
2019-02-14T07:18:00.673Z,16.10
2019-02-14T07:20:28.972Z,22.37
2019-02-14T07:22:56.803Z,22.50
2019-02-14T07:25:24.418Z,16.93
2019-02-14T07:27:51.955Z,20.60
2019-02-14T07:30:20.052Z,24.77
2019-02-14T07:32:48.001Z,20.20
2019-02-14T07:35:15.464Z,18.53
2019-02-14T07:37:42.862Z,17.80
2019-02-14T07:40:11.674Z,23.10
2019-02-14T07:42:39.178Z,16.63
2019-02-14T07:45:09.738Z,19.40
2019-02-14T07:47:37.104Z,16.03
2019-02-14T07:50:05.424Z,17.90
2019-02-14T07:52:33.381Z,17.77
2019-02-14T07:55:00.666Z,17.90
2019-02-14T07:57:27.932Z,17.80
2019-02-14T07:59:55.342Z,22.63
2019-02-14T08:02:22.720Z,19.83
2019-02-14T08:04:50.396Z,19.47
2019-02-14T08:07:18.127Z,16.77
2019-02-14T08:09:45.623Z,19.90
2019-02-14T08:12:13.709Z,18.60
2019-02-14T08:14:41.077Z,22.10
2019-02-14T08:17:08.175Z,21.50
2019-02-14T08:19:36.421Z,21.73
2019-02-14T08:22:04.022Z,22.93
2019-02-14T08:24:31.742Z,27.70
2019-02-14T08:26:59.617Z,24.30
2019-02-14T08:29:28.013Z,24.33
2019-02-14T08:31:56.703Z,22.40
2019-02-14T08:34:24.896Z,18.60
2019-02-14T08:36:56.509Z,23.13
2019-02-14T08:39:24.045Z,20.63
2019-02-14T08:41:52.435Z,21.50
2019-02-14T08:44:19.935Z,23.37
2019-02-14T08:46:47.809Z,27.73
2019-02-14T08:49:15.105Z,22.07
2019-02-14T08:51:42.729Z,18.00
2019-02-14T08:54:10.511Z,19.43
2019-02-14T08:56:38.933Z,14.00
2019-02-14T08:59:06.542Z,18.47
2019-02-14T09:01:33.902Z,15.70
2019-02-14T09:04:01.714Z,14.97
2019-02-14T09:06:29.630Z,14.87
2019-02-14T09:09:00.078Z,16.93
2019-02-14T09:11:27.489Z,15.93
2019-02-14T09:13:55.070Z,18.93
2019-02-14T09:16:23.010Z,16.17
2019-02-14T09:18:53.863Z,15.80
2019-02-14T09:21:21.330Z,18.63
2019-02-14T09:23:50.211Z,17.97
2019-02-14T09:26:18.287Z,24.23
2019-02-14T09:28:45.566Z,17.93
2019-02-14T09:31:13.650Z,21.03
2019-02-14T09:33:41.501Z,16.97
2019-02-14T09:36:08.611Z,15.90
2019-02-14T09:38:36.257Z,16.90
2019-02-14T09:41:03.828Z,18.23
2019-02-14T09:43:31.456Z,16.70
2019-02-14T09:45:58.880Z,14.40
2019-02-14T09:48:26.153Z,19.10
2019-02-14T09:50:53.497Z,13.57
2019-02-14T09:53:22.162Z,13.10
2019-02-14T09:55:49.584Z,14.47
2019-02-14T09:58:16.805Z,16.07
2019-02-14T10:00:44.626Z,13.63
2019-02-14T10:03:12.257Z,16.17
2019-02-14T10:05:40.010Z,16.20
2019-02-14T10:08:12.914Z,16.87
2019-02-14T10:10:37.347Z,14.43
2019-02-14T10:13:05.800Z,14.30
2019-02-14T10:15:33.880Z,16.83
2019-02-14T10:18:01.382Z,17.07
2019-02-14T10:20:28.846Z,15.57
2019-02-14T10:22:56.610Z,17.70
2019-02-14T10:25:23.958Z,17.83
2019-02-14T10:27:52.156Z,12.47
2019-02-14T10:30:19.530Z,16.07
2019-02-14T10:32:47.080Z,13.70
2019-02-14T10:35:15.011Z,17.10
2019-02-14T10:37:42.569Z,13.53
2019-02-14T10:40:11.776Z,18.47
2019-02-14T10:42:39.715Z,14.97
2019-02-14T10:45:10.897Z,14.97
2019-02-14T10:47:39.188Z,15.90
2019-02-14T10:50:08.790Z,16.10
2019-02-14T10:52:37.838Z,14.13
2019-02-14T10:55:08.751Z,14.27
2019-02-14T10:57:41.501Z,16.37
2019-02-14T11:00:18.048Z,14.50
2019-02-14T11:02:49.808Z,14.63
2019-02-14T11:05:21.560Z,12.10
2019-02-14T11:07:53.342Z,20.00
2019-02-14T11:10:27.721Z,15.93
2019-02-14T11:12:57.879Z,13.97
2019-02-14T11:15:28.464Z,13.23
2019-02-14T11:18:02.037Z,13.33
2019-02-14T11:20:34.574Z,14.17
2019-02-14T11:23:07.923Z,16.47
2019-02-14T11:25:38.123Z,17.17
2019-02-14T11:28:12.128Z,16.23
2019-02-14T11:30:41.578Z,14.07
2019-02-14T11:33:15.644Z,14.70
2019-02-14T11:35:44.084Z,15.83
2019-02-14T11:38:23.936Z,13.63
2019-02-14T11:40:53.812Z,17.37
2019-02-14T11:43:23.597Z,14.93
2019-02-14T11:45:54.929Z,15.13
2019-02-14T11:48:27.600Z,16.57
2019-02-14T11:50:57.888Z,15.10
2019-02-14T11:53:29.379Z,15.80
2019-02-14T11:55:59.794Z,14.13
2019-02-14T11:58:28.209Z,16.77
2019-02-14T12:00:55.468Z,18.73
2019-02-14T12:03:22.905Z,15.13
2019-02-14T12:05:50.310Z,16.97
2019-02-14T12:08:17.934Z,13.73
2019-02-14T12:10:46.437Z,16.30
2019-02-14T12:13:14.278Z,13.43
2019-02-14T12:15:41.765Z,17.27
2019-02-14T12:18:09.734Z,14.17
2019-02-14T12:20:47.874Z,14.70
2019-02-14T12:23:13.812Z,15.73
2019-02-14T12:25:42.797Z,15.53
2019-02-14T12:28:10.346Z,14.07
2019-02-14T12:30:39.203Z,17.93
2019-02-14T12:33:20.263Z,14.43
2019-02-14T12:35:48.076Z,17.83
2019-02-14T12:38:22.245Z,17.73
2019-02-14T12:40:49.977Z,15.13
2019-02-14T12:43:17.673Z,16.47
2019-02-14T12:45:44.953Z,15.23
2019-02-14T12:48:13.674Z,16.00
2019-02-14T12:50:40.900Z,15.67
2019-02-14T12:53:08.922Z,16.23
2019-02-14T12:55:36.521Z,15.80
2019-02-14T12:58:04.154Z,16.30
2019-02-14T13:00:33.064Z,16.90
2019-02-14T13:03:00.792Z,15.23
2019-02-14T13:05:28.360Z,17.17
2019-02-14T13:07:57.174Z,17.00
2019-02-14T13:10:26.155Z,16.30
2019-02-14T13:12:53.702Z,13.57
2019-02-14T13:15:21.750Z,15.93
2019-02-14T13:17:49.215Z,15.17
2019-02-14T13:20:17.184Z,16.83
2019-02-14T13:22:48.862Z,18.07
2019-02-14T13:25:16.463Z,18.37
2019-02-14T13:27:44.165Z,15.17
2019-02-14T13:30:15.338Z,16.53
2019-02-14T13:32:42.826Z,13.27
2019-02-14T13:35:10.285Z,16.13
2019-02-14T13:37:40.005Z,15.23
2019-02-14T13:40:08.004Z,13.97
2019-02-14T13:42:38.598Z,14.77
2019-02-14T13:45:09.825Z,10.27
2019-02-14T13:47:37.195Z,18.93
2019-02-14T13:50:06.159Z,12.80
2019-02-14T13:52:33.802Z,16.57
2019-02-14T13:55:01.377Z,11.60
2019-02-14T13:57:28.638Z,13.00
2019-02-14T13:59:57.034Z,12.43
2019-02-14T14:02:24.696Z,14.83
2019-02-14T14:04:57.121Z,13.33
2019-02-14T14:07:24.731Z,14.87
2019-02-14T14:09:52.407Z,16.47
2019-02-14T14:12:20.559Z,14.50
2019-02-14T14:14:48.296Z,19.47
2019-02-14T14:17:16.379Z,14.70
2019-02-14T14:19:43.998Z,14.97
2019-02-14T14:22:11.988Z,12.30
2019-02-14T14:24:39.436Z,15.87
2019-02-14T14:27:07.453Z,21.63
2019-02-14T14:29:35.296Z,15.17
2019-02-14T14:32:02.669Z,17.77
2019-02-14T14:34:30.172Z,15.60
2019-02-14T14:36:58.324Z,19.13
2019-02-14T14:39:26.402Z,16.67
2019-02-14T14:41:53.540Z,19.97
2019-02-14T14:44:29.996Z,16.20
2019-02-14T14:47:00.809Z,16.83
2019-02-14T14:49:27.960Z,16.00
2019-02-14T14:51:55.642Z,21.33
2019-02-14T14:54:23.279Z,18.33
2019-02-14T14:56:50.758Z,17.00
2019-02-14T14:59:18.571Z,19.20
2019-02-14T15:01:46.110Z,20.13
2019-02-14T15:04:13.488Z,18.70
2019-02-14T15:06:40.994Z,21.27
2019-02-14T15:09:12.437Z,19.63
2019-02-14T15:11:40.858Z,19.97
2019-02-14T15:14:08.528Z,17.43
2019-02-14T15:16:35.635Z,17.80
2019-02-14T15:19:03.800Z,17.90
2019-02-14T15:21:31.416Z,21.37
2019-02-14T15:23:58.530Z,17.20
2019-02-14T15:26:26.283Z,14.50
2019-02-14T15:28:53.670Z,14.60
2019-02-14T15:31:21.081Z,12.13
2019-02-14T15:33:49.314Z,12.93
2019-02-14T15:36:16.688Z,12.00
2019-02-14T15:38:44.763Z,16.13
2019-02-14T15:41:12.120Z,13.07
2019-02-14T15:43:39.880Z,14.80
2019-02-14T15:46:07.565Z,17.03
2019-02-14T15:48:35.022Z,15.03
2019-02-14T15:51:02.726Z,13.60
2019-02-14T15:53:30.488Z,14.03
2019-02-14T15:55:58.292Z,11.63
2019-02-14T15:58:26.030Z,10.67
2019-02-14T16:00:54.090Z,11.30
2019-02-14T16:03:21.627Z,14.37
2019-02-14T16:05:49.856Z,10.70
2019-02-14T16:08:19.454Z,12.37
2019-02-14T16:10:46.819Z,12.57
2019-02-14T16:13:14.060Z,10.23
2019-02-14T16:15:41.618Z,12.80
2019-02-14T16:18:09.170Z,14.10
2019-02-14T16:20:36.903Z,15.80
2019-02-14T16:23:06.434Z,15.37
2019-02-14T16:25:33.944Z,11.30
2019-02-14T16:28:01.590Z,9.43
2019-02-14T16:30:30.896Z,16.33
2019-02-14T16:32:58.335Z,20.80
2019-02-14T16:35:25.975Z,12.57
2019-02-14T16:37:53.396Z,12.37
2019-02-14T16:40:27.443Z,12.77
2019-02-14T16:42:54.745Z,15.90
2019-02-14T16:45:23.793Z,20.67
2019-02-14T16:47:51.066Z,21.47
2019-02-14T16:50:19.911Z,17.47
2019-02-14T16:52:47.921Z,19.93
2019-02-14T16:55:15.262Z,22.43
2019-02-14T16:57:42.644Z,23.60
2019-02-14T17:00:10.939Z,20.77
2019-02-14T17:02:38.455Z,18.33
2019-02-14T17:05:05.918Z,15.97
2019-02-14T17:07:34.054Z,18.10
2019-02-14T17:10:02.003Z,20.17
2019-02-14T17:12:29.556Z,14.80
2019-02-14T17:14:57.502Z,15.93
2019-02-14T17:17:27.846Z,14.97
2019-02-14T17:19:54.113Z,13.83
2019-02-14T17:22:22.019Z,19.50
2019-02-14T17:24:49.214Z,18.20
2019-02-14T17:27:18.111Z,17.53
2019-02-14T17:29:45.892Z,32.37
2019-02-14T17:32:13.599Z,31.20
2019-02-14T17:34:40.987Z,29.17
2019-02-14T17:37:08.786Z,22.87
2019-02-14T17:39:38.859Z,20.23
2019-02-14T17:42:06.715Z,17.27
2019-02-14T17:44:33.996Z,13.30
2019-02-14T17:47:01.573Z,17.03
2019-02-14T17:49:29.502Z,16.63
2019-02-14T17:51:56.670Z,18.97
2019-02-14T17:54:28.531Z,17.23
2019-02-14T17:56:55.851Z,15.90
2019-02-14T17:59:23.331Z,16.57
2019-02-14T18:01:51.058Z,25.10
2019-02-14T18:04:19.940Z,21.10
2019-02-14T18:06:50.648Z,26.13
2019-02-14T18:09:18.693Z,24.03
2019-02-14T18:11:49.251Z,19.90
2019-02-14T18:14:16.705Z,18.47
2019-02-14T18:16:44.074Z,20.27
2019-02-14T18:19:11.596Z,26.53
2019-02-14T18:21:38.976Z,22.10
2019-02-14T18:24:06.364Z,21.50
2019-02-14T18:26:33.762Z,27.30
2019-02-14T18:29:01.855Z,28.60
2019-02-14T18:31:29.001Z,20.13
2019-02-14T18:33:56.779Z,20.07
2019-02-14T18:36:24.601Z,20.83
2019-02-14T18:38:54.165Z,22.67
2019-02-14T18:41:21.908Z,24.17
2019-02-14T18:43:49.301Z,21.80
2019-02-14T18:46:16.990Z,26.87
2019-02-14T18:48:44.920Z,29.47
2019-02-14T18:51:12.594Z,28.90
2019-02-14T18:53:40.034Z,25.00
2019-02-14T18:56:09.545Z,21.97
2019-02-14T18:58:37.136Z,27.47
2019-02-14T19:01:05.307Z,25.07
2019-02-14T19:03:33.309Z,28.37
2019-02-14T19:06:00.838Z,25.03
2019-02-14T19:08:28.593Z,36.37
2019-02-14T19:10:56.918Z,32.10
2019-02-14T19:13:24.962Z,33.13
2019-02-14T19:15:52.444Z,37.83
2019-02-14T19:18:19.706Z,28.20
2019-02-14T19:20:46.861Z,31.15
2019-02-14T19:23:23.354Z,33.93
2019-02-14T19:25:43.992Z,30.47
2019-02-14T19:28:11.538Z,35.07
2019-02-14T19:30:39.122Z,42.10
2019-02-14T19:33:06.765Z,41.17
2019-02-14T19:35:34.501Z,39.80
2019-02-14T19:38:02.908Z,31.37
2019-02-14T19:40:30.336Z,29.97
2019-02-14T19:42:58.186Z,27.90
2019-02-14T19:45:36.089Z,29.40
2019-02-14T19:47:55.370Z,27.53
2019-02-14T19:50:23.367Z,25.17
2019-02-14T19:52:50.779Z,26.33
2019-02-14T19:55:18.397Z,25.27
2019-02-14T19:57:46.272Z,30.07
2019-02-14T20:00:14.352Z,20.70
2019-02-14T20:02:43.009Z,29.17
2019-02-14T20:05:10.833Z,25.47
2019-02-14T20:07:38.211Z,25.83
2019-02-14T20:10:08.383Z,21.40
2019-02-14T20:12:36.278Z,24.57
2019-02-14T20:15:04.993Z,22.30
2019-02-14T20:17:32.763Z,20.77
2019-02-14T20:20:00.465Z,25.37
2019-02-14T20:22:28.238Z,29.40
2019-02-14T20:24:57.026Z,32.57
2019-02-14T20:27:24.935Z,31.80
2019-02-14T20:29:52.926Z,53.67
2019-02-14T20:32:20.119Z,67.43
2019-02-14T20:34:47.896Z,67.33
2019-02-14T20:37:15.785Z,65.57
2019-02-14T20:39:44.333Z,61.20
2019-02-14T20:42:11.885Z,66.10
2019-02-14T20:44:39.268Z,42.50
2019-02-14T20:47:06.508Z,43.47
2019-02-14T20:49:34.116Z,34.03
2019-02-14T20:52:02.045Z,27.83
2019-02-14T20:54:30.570Z,27.30
2019-02-14T20:56:58.016Z,27.73
2019-02-14T20:59:25.309Z,36.07
